Excelsior, Minnesota
Current Conditions -  °F | °C
As of 9:53 AM on Friday 24 Oct 2014 (Local Time) from KFCM Reporting Station
Clear Clear  
Wind Chill: 54°   Ceiling: Unl
Heat Index: 54°   Visibility: 10mi
Dew Point: 48°   Wind: 8mph
Humidity: 80%   Direction: 130°SE
Pressure: 29.87"   Gusts: NA
Location:  44.9°N, 93.57°W
Report Text: KFCM 241453Z 13007KT 10SM CLR 12/09 A2987 RMK AO2 SLP117 T01220089 58001
Loading
Personal Weather Stations






























Interactive Weather Map New forecast layout! Learn more

10-Day Weather Forecast

Advertisements
Track Severe Weather on mobile